Time;durP1;ratioP1;P1;durP2;ratioP2;P2;SDS_P1;SDS_P2;PMS_P1;PMS_P2;Temp;Humidity;BMP_temperature;BMP_pressure;BME280_temperature;BME280_humidity;BME280_pressure;Samples;Min_cycle;Max_cycle;Signal;HPM_P1;HPM_P2
2023/01/29 00:00:47;;;;;;;15.30;8.18;;;;;;;;;;5001521;28;20037;-79
2023/01/29 00:03:12;;;;;;;18.02;8.73;;;;;;;;;;4988003;28;20025;-79
2023/01/29 00:05:38;;;;;;;17.58;10.10;;;;;;;;;;4983988;28;20482;-79
2023/01/29 00:08:03;;;;;;;17.33;9.20;;;;;;;;;;5000348;28;20030;-79
2023/01/29 00:10:29;;;;;;;18.85;10.50;;;;;;;;;;5001036;28;20026;-79
2023/01/29 00:12:54;;;;;;;20.70;11.07;;;;;;;;;;4987381;28;20061;-79
2023/01/29 00:15:19;;;;;;;18.45;10.45;;;;;;;;;;5001959;28;20022;-79
2023/01/29 00:17:45;;;;;;;25.08;12.65;;;;;;;;;;4991846;28;20030;-79
2023/01/29 00:20:11;;;;;;;23.85;12.32;;;;;;;;;;5002479;28;20034;-79
2023/01/29 00:22:36;;;;;;;26.45;12.68;;;;;;;;;;4989685;28;20037;-79
2023/01/29 00:25:02;;;;;;;23.85;11.93;;;;;;;;;;5000930;28;20034;-79
2023/01/29 00:27:27;;;;;;;20.60;10.45;;;;;;;;;;4994384;28;20511;-79
2023/01/29 00:32:36;;;;;;;22.38;11.73;;;;;;;;;;4999682;28;20088;-78
2023/01/29 00:35:02;;;;;;;19.80;11.13;;;;;;;;;;5001195;28;20033;-79
2023/01/29 00:37:28;;;;;;;20.05;10.90;;;;;;;;;;5009016;28;20367;-79
2023/01/29 00:39:53;;;;;;;19.98;10.90;;;;;;;;;;4989950;28;20038;-79
2023/01/29 00:45:03;;;;;;;18.13;9.38;;;;;;;;;;5004037;28;20131;-79
2023/01/29 00:47:35;;;;;;;18.42;9.88;;;;;;;;;;5006402;28;20030;-79
2023/01/29 00:50:02;;;;;;;19.13;9.40;;;;;;;;;;5006092;28;20026;-79
2023/01/29 00:52:28;;;;;;;18.98;9.82;;;;;;;;;;4991113;28;20116;-79
2023/01/29 00:54:58;;;;;;;17.23;9.73;;;;;;;;;;4991370;28;20450;-79
2023/01/29 00:57:26;;;;;;;17.52;9.82;;;;;;;;;;4986254;28;20037;-79
2023/01/29 00:59:51;;;;;;;17.60;9.57;;;;;;;;;;5005028;28;20033;-79
2023/01/29 01:05:02;;;;;;;18.73;9.13;;;;;;;;;;4999371;28;20041;-79
2023/01/29 01:07:29;;;;;;;19.15;10.20;;;;;;;;;;4993008;28;20018;-79
2023/01/29 01:12:38;;;;;;;16.92;9.85;;;;;;;;;;5004394;28;20121;-79
2023/01/29 01:15:04;;;;;;;17.02;9.27;;;;;;;;;;5007874;28;20112;-79
2023/01/29 01:17:29;;;;;;;16.80;8.93;;;;;;;;;;5007734;28;20433;-79
2023/01/29 01:19:55;;;;;;;18.38;9.82;;;;;;;;;;4987930;28;20029;-79
2023/01/29 01:22:20;;;;;;;18.58;10.00;;;;;;;;;;5005930;28;20466;-79
2023/01/29 01:24:46;;;;;;;16.70;8.57;;;;;;;;;;5005904;28;20060;-79
2023/01/29 01:27:12;;;;;;;20.58;10.20;;;;;;;;;;5005875;28;20038;-79
2023/01/29 01:29:37;;;;;;;16.98;8.80;;;;;;;;;;4989669;28;20026;-79
2023/01/29 01:32:04;;;;;;;16.80;9.85;;;;;;;;;;4985044;28;20050;-79
2023/01/29 01:34:30;;;;;;;18.33;9.75;;;;;;;;;;4983198;28;20044;-80
2023/01/29 01:36:55;;;;;;;16.33;9.07;;;;;;;;;;4985706;28;20043;-79
2023/01/29 01:39:21;;;;;;;18.83;10.45;;;;;;;;;;4987775;28;20030;-79
2023/01/29 01:41:46;;;;;;;19.40;10.00;;;;;;;;;;4992776;28;20040;-80
2023/01/29 01:44:50;;;;;;;15.88;8.80;;;;;;;;;;4986568;28;20133;-80
2023/01/29 01:47:18;;;;;;;16.90;9.05;;;;;;;;;;5004126;28;20052;-79
2023/01/29 01:49:44;;;;;;;17.58;9.35;;;;;;;;;;5007513;28;20477;-79
2023/01/29 01:52:11;;;;;;;18.73;9.88;;;;;;;;;;5009504;28;20032;-80
2023/01/29 01:54:37;;;;;;;18.52;9.20;;;;;;;;;;5009125;28;20489;-79
2023/01/29 01:57:14;;;;;;;17.25;8.88;;;;;;;;;;4991980;28;20048;-79
2023/01/29 01:59:47;;;;;;;16.92;9.10;;;;;;;;;;5007258;28;20026;-79
2023/01/29 02:10:36;;;;;;;15.43;8.80;;;;;;;;;;5009589;28;20032;-79
2023/01/29 02:13:05;;;;;;;19.45;9.65;;;;;;;;;;5003385;28;20034;-79
2023/01/29 02:15:30;;;;;;;17.60;9.30;;;;;;;;;;5008865;28;20037;-79
2023/01/29 02:17:56;;;;;;;16.58;8.77;;;;;;;;;;5009834;28;20626;-80
2023/01/29 02:20:32;;;;;;;17.38;9.63;;;;;;;;;;5004601;28;20509;-79
2023/01/29 02:23:25;;;;;;;16.08;8.65;;;;;;;;;;5008853;28;20029;-79
2023/01/29 02:25:57;;;;;;;;;;;;;;;;;;5007337;28;20533;-79
2023/01/29 02:28:22;;;;;;;15.50;8.38;;;;;;;;;;5005457;28;20269;-79
2023/01/29 02:31:12;;;;;;;17.40;9.45;;;;;;;;;;4989240;28;20029;-79
2023/01/29 02:33:41;;;;;;;16.83;8.90;;;;;;;;;;4997050;28;20062;-79
2023/01/29 02:36:26;;;;;;;17.58;9.20;;;;;;;;;;5002733;28;20485;-79
2023/01/29 02:39:13;;;;;;;17.92;8.32;;;;;;;;;;5009282;28;20109;-79
2023/01/29 02:42:02;;;;;;;18.23;9.43;;;;;;;;;;5006831;28;20061;-79
2023/01/29 02:44:42;;;;;;;17.25;8.65;;;;;;;;;;5003659;28;20543;-79
2023/01/29 02:47:34;;;;;;;17.10;9.55;;;;;;;;;;5004556;28;20017;-79
2023/01/29 02:50:20;;;;;;;15.13;8.35;;;;;;;;;;5009000;28;20493;-79
2023/01/29 02:53:00;;;;;;;17.20;9.38;;;;;;;;;;5007405;28;20104;-79
2023/01/29 02:55:34;;;;;;;16.80;8.13;;;;;;;;;;5009152;28;20025;-79
2023/01/29 02:58:10;;;;;;;19.63;9.75;;;;;;;;;;4990294;28;20067;-80
2023/01/29 03:00:41;;;;;;;17.30;8.77;;;;;;;;;;5006846;28;20620;-79
2023/01/29 03:03:14;;;;;;;17.52;10.07;;;;;;;;;;5003209;28;20047;-79
2023/01/29 03:05:53;;;;;;;18.33;9.70;;;;;;;;;;4985681;28;20466;-79
2023/01/29 03:08:41;;;;;;;17.90;9.38;;;;;;;;;;5002928;28;20061;-79
2023/01/29 03:11:12;;;;;;;17.77;9.57;;;;;;;;;;4982144;28;20394;-79
2023/01/29 03:14:12;;;;;;;19.00;9.55;;;;;;;;;;5003060;28;20489;-79
2023/01/29 03:16:49;;;;;;;18.75;10.07;;;;;;;;;;4969999;28;20042;-79
2023/01/29 03:19:21;;;;;;;17.17;9.15;;;;;;;;;;5007492;28;20079;-79
2023/01/29 03:21:59;;;;;;;16.35;8.70;;;;;;;;;;5004784;28;20394;-80
2023/01/29 03:33:18;;;;;;;17.92;9.15;;;;;;;;;;5006626;28;20046;-79
2023/01/29 03:35:55;;;;;;;17.20;9.10;;;;;;;;;;5008864;28;20425;-79
2023/01/29 03:38:20;;;;;;;19.98;10.63;;;;;;;;;;4990378;28;20022;-79
2023/01/29 03:40:58;;;;;;;19.50;9.50;;;;;;;;;;5006006;28;20354;-79
2023/01/29 03:43:40;;;;;;;19.80;9.68;;;;;;;;;;5004587;28;20029;-79
2023/01/29 03:46:17;;;;;;;17.27;9.32;;;;;;;;;;4986884;28;20029;-79
2023/01/29 03:49:08;;;;;;;17.10;9.65;;;;;;;;;;4987088;28;20038;-80
2023/01/29 03:51:45;;;;;;;18.48;9.65;;;;;;;;;;5006273;28;20113;-79
2023/01/29 03:54:32;;;;;;;19.48;9.95;;;;;;;;;;5004490;28;20050;-79
2023/01/29 03:57:21;;;;;;;18.95;9.57;;;;;;;;;;5006353;28;20065;-80
2023/01/29 04:00:07;;;;;;;18.83;10.02;;;;;;;;;;5000487;28;21042;-80
2023/01/29 04:02:41;;;;;;;20.77;10.48;;;;;;;;;;5003216;28;20022;-79
2023/01/29 04:05:13;;;;;;;18.95;10.18;;;;;;;;;;5003172;28;20121;-79
2023/01/29 04:07:41;;;;;;;22.10;10.93;;;;;;;;;;4985545;28;20038;-79
2023/01/29 04:10:15;;;;;;;18.88;9.60;;;;;;;;;;5002221;28;20129;-80
2023/01/29 04:12:57;;;;;;;21.55;10.38;;;;;;;;;;4985049;28;20359;-79
2023/01/29 04:15:27;;;;;;;19.42;9.82;;;;;;;;;;5004974;28;20049;-78
2023/01/29 04:17:54;;;;;;;22.60;11.35;;;;;;;;;;5007743;28;20034;-79
2023/01/29 04:20:20;;;;;;;18.38;9.55;;;;;;;;;;4985982;28;20061;-79
2023/01/29 04:22:48;;;;;;;23.13;10.57;;;;;;;;;;4990728;28;20057;-79
2023/01/29 04:25:25;;;;;;;19.30;10.35;;;;;;;;;;5000788;28;20030;-79
2023/01/29 04:28:19;;;;;;;20.95;11.13;;;;;;;;;;5001350;28;20088;-79
2023/01/29 04:30:50;;;;;;;19.95;10.23;;;;;;;;;;5006944;28;20030;-79
2023/01/29 04:33:31;;;;;;;23.75;10.82;;;;;;;;;;4990640;28;20485;-79
2023/01/29 04:36:18;;;;;;;21.08;10.73;;;;;;;;;;5005592;28;20022;-79
2023/01/29 04:38:56;;;;;;;19.15;10.10;;;;;;;;;;5008197;28;20033;-78
2023/01/29 04:42:23;;;;;;;20.10;9.73;;;;;;;;;;5003532;28;20032;-79
2023/01/29 04:45:07;;;;;;;20.48;10.60;;;;;;;;;;4910139;29;20115;-79
2023/01/29 04:47:47;;;;;;;20.52;10.45;;;;;;;;;;4911547;29;20532;-79
2023/01/29 04:50:25;;;;;;;17.77;9.60;;;;;;;;;;4960520;28;20128;-79
2023/01/29 04:53:11;;;;;;;20.33;10.57;;;;;;;;;;5004068;28;20038;-79
2023/01/29 04:55:58;;;;;;;20.65;10.20;;;;;;;;;;4988819;28;20041;-80
2023/01/29 04:58:37;;;;;;;19.95;10.23;;;;;;;;;;5008007;28;20551;-79
2023/01/29 05:01:06;;;;;;;20.50;9.85;;;;;;;;;;4998944;28;20080;-79
2023/01/29 05:03:33;;;;;;;17.63;9.23;;;;;;;;;;4985661;28;20038;-79
2023/01/29 05:06:00;;;;;;;19.60;9.68;;;;;;;;;;5004767;28;20497;-79
2023/01/29 05:08:27;;;;;;;19.65;10.20;;;;;;;;;;4988326;28;20076;-79
2023/01/29 05:10:54;;;;;;;20.17;10.23;;;;;;;;;;5004532;28;20092;-79
2023/01/29 05:13:22;;;;;;;22.15;10.55;;;;;;;;;;5003346;28;20498;-79
2023/01/29 05:16:06;;;;;;;18.88;10.43;;;;;;;;;;4998724;28;20037;-79
2023/01/29 05:18:33;;;;;;;22.35;10.57;;;;;;;;;;4989235;28;20022;-79
2023/01/29 05:21:03;;;;;;;20.95;10.40;;;;;;;;;;4985817;28;20030;-79
2023/01/29 05:23:29;;;;;;;19.10;10.20;;;;;;;;;;4992024;28;20026;-79
2023/01/29 05:25:55;;;;;;;19.65;11.05;;;;;;;;;;4992703;28;20041;-79
2023/01/29 05:28:22;;;;;;;20.17;10.55;;;;;;;;;;5007829;28;20033;-79
2023/01/29 05:30:53;;;;;;;21.63;10.23;;;;;;;;;;4991644;28;20478;-80
2023/01/29 05:33:21;;;;;;;19.38;10.50;;;;;;;;;;5004639;28;20030;-79
2023/01/29 05:35:47;;;;;;;21.30;9.95;;;;;;;;;;4994825;28;20041;-78
2023/01/29 05:38:13;;;;;;;19.73;9.35;;;;;;;;;;5007075;28;20025;-79
2023/01/29 05:40:38;;;;;;;22.02;10.52;;;;;;;;;;4992965;28;20482;-79
2023/01/29 05:43:05;;;;;;;20.15;9.95;;;;;;;;;;4991065;28;20080;-79
2023/01/29 05:45:32;;;;;;;20.30;10.00;;;;;;;;;;5006671;28;20037;-79
2023/01/29 05:47:58;;;;;;;21.38;10.45;;;;;;;;;;5008052;28;20061;-80
2023/01/29 05:50:25;;;;;;;21.30;10.20;;;;;;;;;;4993974;28;20036;-80
2023/01/29 05:53:00;;;;;;;21.60;11.25;;;;;;;;;;5008422;28;20785;-79
2023/01/29 05:55:28;;;;;;;21.52;10.60;;;;;;;;;;4991851;28;20062;-79
2023/01/29 05:57:54;;;;;;;18.90;10.05;;;;;;;;;;5011442;28;20018;-79
2023/01/29 06:00:20;;;;;;;20.58;10.82;;;;;;;;;;5009280;28;20036;-79
2023/01/29 06:02:45;;;;;;;20.92;11.35;;;;;;;;;;4995611;28;20814;-79
2023/01/29 06:05:10;;;;;;;22.45;11.07;;;;;;;;;;4992699;28;20129;-79
2023/01/29 06:07:36;;;;;;;18.98;10.57;;;;;;;;;;5006127;28;20112;-79
2023/01/29 06:10:02;;;;;;;19.77;10.88;;;;;;;;;;5009471;28;20030;-79
2023/01/29 06:12:28;;;;;;;21.77;11.32;;;;;;;;;;4991670;28;20037;-79
2023/01/29 06:14:53;;;;;;;25.52;12.50;;;;;;;;;;4994274;28;20049;-79
2023/01/29 06:17:18;;;;;;;20.17;10.63;;;;;;;;;;4989686;28;20120;-79
2023/01/29 06:19:45;;;;;;;22.08;11.50;;;;;;;;;;4997982;28;20023;-79
2023/01/29 06:22:10;;;;;;;20.98;11.52;;;;;;;;;;5007076;28;20033;-79
2023/01/29 06:24:36;;;;;;;23.92;12.50;;;;;;;;;;4989688;28;20030;-79
2023/01/29 06:27:01;;;;;;;22.13;11.85;;;;;;;;;;4988899;28;20044;-79
2023/01/29 06:29:27;;;;;;;23.75;12.23;;;;;;;;;;4989654;28;20100;-79
2023/01/29 06:31:52;;;;;;;27.38;13.43;;;;;;;;;;4988273;28;20084;-79
2023/01/29 06:34:17;;;;;;;22.92;12.57;;;;;;;;;;4976550;28;20508;-79
2023/01/29 06:36:43;;;;;;;22.23;11.70;;;;;;;;;;4989680;28;21019;-79
2023/01/29 06:39:08;;;;;;;23.33;12.35;;;;;;;;;;5007955;28;20029;-79
2023/01/29 06:41:34;;;;;;;21.92;12.23;;;;;;;;;;4988781;28;20486;-79
2023/01/29 06:44:00;;;;;;;23.45;12.48;;;;;;;;;;4994429;28;20030;-79
2023/01/29 06:46:25;;;;;;;23.02;12.25;;;;;;;;;;5005818;28;20062;-79
2023/01/29 06:48:50;;;;;;;21.05;11.15;;;;;;;;;;5006755;28;20398;-79
2023/01/29 06:51:16;;;;;;;22.58;11.80;;;;;;;;;;4990763;28;20026;-79
2023/01/29 06:53:41;;;;;;;23.40;12.73;;;;;;;;;;5009276;28;20523;-79
2023/01/29 06:56:07;;;;;;;21.45;12.23;;;;;;;;;;4987619;28;20041;-79
2023/01/29 06:58:36;;;;;;;22.25;12.50;;;;;;;;;;5001825;28;20493;-79
2023/01/29 07:01:06;;;;;;;23.05;12.20;;;;;;;;;;5002279;28;20033;-80
2023/01/29 07:03:32;;;;;;;23.20;12.43;;;;;;;;;;4988011;28;20022;-79
2023/01/29 07:05:57;;;;;;;24.60;11.63;;;;;;;;;;5008286;28;20119;-79
2023/01/29 07:08:23;;;;;;;24.35;12.98;;;;;;;;;;4991254;28;20183;-79
2023/01/29 07:10:48;;;;;;;22.80;12.63;;;;;;;;;;4989954;28;20046;-79
2023/01/29 07:13:14;;;;;;;22.48;12.00;;;;;;;;;;5007813;28;20026;-79
2023/01/29 07:15:40;;;;;;;21.13;11.95;;;;;;;;;;5005536;28;20026;-79
2023/01/29 07:18:11;;;;;;;22.17;12.05;;;;;;;;;;5008963;28;20033;-79
2023/01/29 07:20:40;;;;;;;22.75;12.35;;;;;;;;;;5006525;28;20557;-79
2023/01/29 07:23:09;;;;;;;22.15;11.70;;;;;;;;;;4990495;28;20026;-79
2023/01/29 07:25:35;;;;;;;20.63;11.52;;;;;;;;;;5004715;28;20033;-79
2023/01/29 07:28:00;;;;;;;24.05;12.45;;;;;;;;;;5003271;28;20048;-79
2023/01/29 07:30:26;;;;;;;21.88;12.20;;;;;;;;;;4987309;28;20040;-79
2023/01/29 07:32:51;;;;;;;24.30;12.75;;;;;;;;;;5006781;28;21566;-79
2023/01/29 07:35:17;;;;;;;21.65;12.43;;;;;;;;;;5006819;28;20332;-79
2023/01/29 07:37:42;;;;;;;20.73;11.85;;;;;;;;;;4986021;28;20557;-80
2023/01/29 07:40:10;;;;;;;23.60;12.25;;;;;;;;;;4995460;28;20033;-79
2023/01/29 07:42:37;;;;;;;25.88;12.50;;;;;;;;;;5006762;28;20041;-79
2023/01/29 07:45:04;;;;;;;20.58;11.45;;;;;;;;;;4989393;28;20034;-79
2023/01/29 07:47:29;;;;;;;23.52;12.68;;;;;;;;;;4991215;28;20120;-79
2023/01/29 07:49:54;;;;;;;21.30;11.90;;;;;;;;;;4984985;28;20457;-79
2023/01/29 07:52:20;;;;;;;21.67;11.75;;;;;;;;;;4983524;28;20033;-79
2023/01/29 07:54:45;;;;;;;25.88;13.55;;;;;;;;;;4982645;28;20037;-79
2023/01/29 07:57:10;;;;;;;23.70;11.93;;;;;;;;;;5006043;28;20022;-79
2023/01/29 07:59:36;;;;;;;20.83;11.60;;;;;;;;;;5004107;28;20470;-79
2023/01/29 08:02:01;;;;;;;20.50;12.07;;;;;;;;;;5004749;28;20034;-79
2023/01/29 08:04:27;;;;;;;21.17;11.95;;;;;;;;;;5005496;28;20042;-80
2023/01/29 08:06:52;;;;;;;25.17;12.65;;;;;;;;;;4989831;28;20453;-79
2023/01/29 08:09:17;;;;;;;22.05;12.55;;;;;;;;;;5006065;28;20043;-79
2023/01/29 08:11:43;;;;;;;22.48;11.73;;;;;;;;;;4990297;28;20030;-79
2023/01/29 08:14:09;;;;;;;23.52;12.00;;;;;;;;;;5009467;28;20071;-79
2023/01/29 08:16:34;;;;;;;23.48;12.38;;;;;;;;;;4990260;28;20053;-79
2023/01/29 08:19:03;;;;;;;23.42;12.77;;;;;;;;;;5003082;28;20030;-79
2023/01/29 08:21:28;;;;;;;23.60;12.43;;;;;;;;;;5005916;28;20037;-79
2023/01/29 08:23:54;;;;;;;22.73;12.57;;;;;;;;;;5005769;28;21392;-79
2023/01/29 08:26:19;;;;;;;22.75;11.70;;;;;;;;;;4992870;28;20044;-80
2023/01/29 08:28:45;;;;;;;21.63;12.15;;;;;;;;;;5006602;28;20117;-79
2023/01/29 08:31:21;;;;;;;22.15;11.93;;;;;;;;;;4986777;28;20024;-80
2023/01/29 08:33:46;;;;;;;21.13;11.73;;;;;;;;;;4985914;28;20053;-79
2023/01/29 08:36:12;;;;;;;23.75;12.27;;;;;;;;;;4990681;28;20076;-81
2023/01/29 08:38:38;;;;;;;21.05;11.70;;;;;;;;;;5000148;28;20053;-79
2023/01/29 08:41:04;;;;;;;19.10;11.35;;;;;;;;;;5004760;28;20100;-79
2023/01/29 08:43:29;;;;;;;22.35;11.65;;;;;;;;;;5004970;28;20017;-79
2023/01/29 08:45:55;;;;;;;21.30;11.73;;;;;;;;;;5005263;28;20033;-79
2023/01/29 08:48:20;;;;;;;23.17;11.80;;;;;;;;;;5009930;28;20034;-79
2023/01/29 08:50:45;;;;;;;22.42;11.50;;;;;;;;;;4989491;28;20037;-79
2023/01/29 08:53:11;;;;;;;22.33;11.68;;;;;;;;;;4999792;28;20077;-79
2023/01/29 08:55:39;;;;;;;21.10;11.65;;;;;;;;;;5004879;28;20109;-85
2023/01/29 08:58:09;;;;;;;22.60;11.63;;;;;;;;;;5007057;28;20026;-85
2023/01/29 09:00:35;;;;;;;21.30;11.82;;;;;;;;;;5006654;28;20116;-85
2023/01/29 09:03:00;;;;;;;22.48;12.43;;;;;;;;;;4988952;28;20116;-85
2023/01/29 09:05:29;;;;;;;20.27;11.23;;;;;;;;;;5006275;28;20471;-85
2023/01/29 09:07:56;;;;;;;19.85;10.30;;;;;;;;;;4991680;28;20439;-85
2023/01/29 09:10:21;;;;;;;22.70;11.38;;;;;;;;;;4986398;28;20477;-83
2023/01/29 09:12:47;;;;;;;21.92;11.40;;;;;;;;;;5002878;28;20026;-85
2023/01/29 09:15:12;;;;;;;23.15;12.23;;;;;;;;;;5005656;28;20033;-85
2023/01/29 09:17:37;;;;;;;18.48;10.65;;;;;;;;;;4992635;28;20041;-84
2023/01/29 09:20:05;;;;;;;29.45;14.80;;;;;;;;;;4989368;28;20030;-84
2023/01/29 09:22:30;;;;;;;19.27;11.57;;;;;;;;;;5005120;28;20054;-84
2023/01/29 09:24:55;;;;;;;19.77;11.95;;;;;;;;;;4988544;28;20064;-85
2023/01/29 09:27:21;;;;;;;18.48;10.90;;;;;;;;;;4995701;28;20482;-84
2023/01/29 09:29:46;;;;;;;21.33;12.02;;;;;;;;;;4990271;28;20089;-85
2023/01/29 09:32:12;;;;;;;20.33;11.38;;;;;;;;;;5007131;28;20561;-84
2023/01/29 09:34:37;;;;;;;18.30;10.15;;;;;;;;;;4993037;28;20042;-84
2023/01/29 09:37:02;;;;;;;20.70;11.02;;;;;;;;;;5004526;28;20033;-84
2023/01/29 09:39:28;;;;;;;25.05;13.15;;;;;;;;;;5006992;28;20061;-84
2023/01/29 09:42:12;;;;;;;18.13;10.38;;;;;;;;;;5005767;28;20053;-84
2023/01/29 09:45:01;;;;;;;16.10;9.48;;;;;;;;;;4980025;28;20848;-83
2023/01/29 09:47:28;;;;;;;19.27;9.57;;;;;;;;;;4986879;28;20379;-86
2023/01/29 09:50:20;;;;;;;22.13;11.90;;;;;;;;;;4989571;28;20100;-84
2023/01/29 09:52:54;;;;;;;16.85;9.73;;;;;;;;;;4969355;28;20034;-85
2023/01/29 09:55:28;;;;;;;19.10;10.48;;;;;;;;;;4991065;28;20384;-85
2023/01/29 09:57:57;;;;;;;18.63;9.82;;;;;;;;;;5005591;28;20032;-84
2023/01/29 10:00:35;;;;;;;17.45;9.68;;;;;;;;;;4991133;28;20053;-85
2023/01/29 10:03:25;;;;;;;16.55;9.10;;;;;;;;;;5006553;28;20386;-83
2023/01/29 10:06:18;;;;;;;16.45;9.40;;;;;;;;;;4999025;28;20490;-83
2023/01/29 10:08:49;;;;;;;17.63;9.20;;;;;;;;;;5003088;28;20033;-85
2023/01/29 10:11:36;;;;;;;18.65;9.93;;;;;;;;;;5006535;28;20030;-84
2023/01/29 10:14:11;;;;;;;18.85;10.05;;;;;;;;;;5008457;28;20482;-84
2023/01/29 10:16:52;;;;;;;18.02;9.80;;;;;;;;;;5010536;28;20482;-84
2023/01/29 10:19:55;;;;;;;16.75;9.65;;;;;;;;;;5003109;28;20050;-84
2023/01/29 10:22:38;;;;;;;16.90;9.25;;;;;;;;;;5010634;28;20049;-85
2023/01/29 10:25:16;;;;;;;17.25;9.82;;;;;;;;;;5004873;28;20375;-85
2023/01/29 10:27:51;;;;;;;18.17;10.13;;;;;;;;;;4990600;28;20504;-85
2023/01/29 10:30:27;;;;;;;16.15;9.68;;;;;;;;;;5005657;28;20528;-85
2023/01/29 10:32:54;;;;;;;17.55;9.88;;;;;;;;;;5008703;28;20028;-85
2023/01/29 10:35:34;;;;;;;17.25;9.73;;;;;;;;;;4986073;28;20164;-81
2023/01/29 10:38:15;;;;;;;16.15;9.73;;;;;;;;;;5004291;28;20533;-81
2023/01/29 10:40:50;;;;;;;16.60;10.05;;;;;;;;;;5007858;28;20416;-85
2023/01/29 10:43:36;;;;;;;16.58;9.32;;;;;;;;;;4997563;28;20100;-85
2023/01/29 10:46:15;;;;;;;20.33;10.27;;;;;;;;;;4988540;28;20038;-84
2023/01/29 10:49:16;;;;;;;19.17;10.55;;;;;;;;;;5008462;28;20478;-81
2023/01/29 10:52:03;;;;;;;17.90;9.48;;;;;;;;;;4955654;28;20116;-85
2023/01/29 10:54:37;;;;;;;19.25;10.68;;;;;;;;;;5010745;28;20077;-83
2023/01/29 10:57:18;;;;;;;17.10;10.27;;;;;;;;;;5003401;28;20022;-84
2023/01/29 10:59:58;;;;;;;16.60;10.15;;;;;;;;;;4991999;28;20034;-83
2023/01/29 11:02:23;;;;;;;20.63;11.65;;;;;;;;;;4974233;28;20030;-84
2023/01/29 11:04:49;;;;;;;23.13;12.70;;;;;;;;;;5007298;28;20022;-84
2023/01/29 11:07:17;;;;;;;17.70;10.82;;;;;;;;;;4993439;28;20359;-84
2023/01/29 11:09:59;;;;;;;17.67;9.93;;;;;;;;;;5006688;28;20030;-84
2023/01/29 11:12:29;;;;;;;16.75;10.23;;;;;;;;;;5008322;28;20037;-84
2023/01/29 11:15:05;;;;;;;19.23;10.60;;;;;;;;;;4991042;28;20030;-84
2023/01/29 11:17:31;;;;;;;17.17;9.73;;;;;;;;;;5006227;28;20531;-83
2023/01/29 11:19:56;;;;;;;19.52;10.85;;;;;;;;;;5004828;28;20030;-84
2023/01/29 11:22:29;;;;;;;18.17;10.23;;;;;;;;;;4993736;28;20030;-83
2023/01/29 11:25:08;;;;;;;18.67;9.80;;;;;;;;;;5012096;28;20025;-85
2023/01/29 11:27:41;;;;;;;19.42;10.25;;;;;;;;;;4985935;28;20025;-84
2023/01/29 11:30:14;;;;;;;16.10;9.85;;;;;;;;;;4994554;28;20018;-85
2023/01/29 11:32:39;;;;;;;;;;;;;;;;;;4990684;28;20485;-84
2023/01/29 11:35:20;;;;;;;18.90;10.18;;;;;;;;;;5003960;28;19974;-84
2023/01/29 11:37:46;;;;;;;20.00;11.18;;;;;;;;;;4989526;28;20033;-85
2023/01/29 11:40:17;;;;;;;19.88;10.90;;;;;;;;;;5001062;28;20088;-85
2023/01/29 11:42:43;;;;;;;21.65;10.93;;;;;;;;;;5002911;28;20041;-84
2023/01/29 11:45:31;;;;;;;19.65;10.45;;;;;;;;;;4991406;28;20041;-84
2023/01/29 11:47:57;;;;;;;18.65;10.65;;;;;;;;;;4980219;28;20049;-84
2023/01/29 11:50:31;;;;;;;20.52;11.55;;;;;;;;;;4987961;28;20081;-83
2023/01/29 11:53:00;;;;;;;19.95;10.52;;;;;;;;;;5005845;28;20075;-84
2023/01/29 11:55:29;;;;;;;20.67;11.05;;;;;;;;;;5007817;28;20124;-85
2023/01/29 11:58:18;;;;;;;22.95;11.80;;;;;;;;;;5002561;28;20037;-84
2023/01/29 12:00:49;;;;;;;21.27;12.20;;;;;;;;;;5002478;28;20448;-84
2023/01/29 12:03:21;;;;;;;20.60;11.38;;;;;;;;;;4990215;28;20100;-84
2023/01/29 12:05:57;;;;;;;19.08;11.38;;;;;;;;;;4996150;28;20037;-83
2023/01/29 12:08:23;;;;;;;21.10;11.98;;;;;;;;;;4989862;28;20030;-83
2023/01/29 12:10:49;;;;;;;19.27;10.80;;;;;;;;;;5004772;28;20029;-84
2023/01/29 12:13:14;;;;;;;19.13;10.85;;;;;;;;;;4992531;28;20033;-84
2023/01/29 12:15:43;;;;;;;19.25;9.95;;;;;;;;;;4988546;28;20042;-83
2023/01/29 12:18:29;;;;;;;19.20;11.18;;;;;;;;;;4990211;28;20548;-84
2023/01/29 12:21:00;;;;;;;20.17;11.70;;;;;;;;;;5005499;28;20026;-84
2023/01/29 12:23:51;;;;;;;22.77;11.75;;;;;;;;;;5011243;28;20029;-84
2023/01/29 12:26:21;;;;;;;17.98;10.80;;;;;;;;;;4991445;28;20026;-84
2023/01/29 12:29:09;;;;;;;21.98;11.95;;;;;;;;;;5001977;28;20062;-81
2023/01/29 12:31:58;;;;;;;21.50;11.07;;;;;;;;;;5008041;28;20033;-84
2023/01/29 12:34:47;;;;;;;18.00;10.70;;;;;;;;;;5002333;28;20486;-84
2023/01/29 12:37:24;;;;;;;19.65;11.15;;;;;;;;;;4988862;28;20044;-85
2023/01/29 12:39:51;;;;;;;21.35;11.48;;;;;;;;;;5000974;28;20072;-83
2023/01/29 12:42:21;;;;;;;19.67;11.43;;;;;;;;;;5001108;28;20030;-86
2023/01/29 12:45:00;;;;;;;22.10;11.95;;;;;;;;;;5009527;28;20437;-86
2023/01/29 12:47:37;;;;;;;19.05;11.50;;;;;;;;;;4992193;28;20021;-86
2023/01/29 12:50:09;;;;;;;23.20;11.77;;;;;;;;;;4990003;28;20030;-85
2023/01/29 12:52:42;;;;;;;21.40;11.63;;;;;;;;;;5002902;28;20021;-85
2023/01/29 12:55:17;;;;;;;20.27;11.65;;;;;;;;;;5009841;28;20022;-84
2023/01/29 12:57:58;;;;;;;22.52;12.43;;;;;;;;;;4990971;28;20030;-86
2023/01/29 13:00:32;;;;;;;19.55;11.52;;;;;;;;;;5007557;28;20029;-82
2023/01/29 13:03:22;;;;;;;19.17;11.27;;;;;;;;;;4992996;28;20026;-86
2023/01/29 13:05:50;;;;;;;23.20;12.25;;;;;;;;;;4996641;28;20497;-85
2023/01/29 13:08:34;;;;;;;22.20;11.80;;;;;;;;;;5004599;28;20030;-85
2023/01/29 13:11:03;;;;;;;22.98;12.57;;;;;;;;;;5005032;28;20057;-86
2023/01/29 13:13:41;;;;;;;22.98;12.30;;;;;;;;;;4993113;28;20037;-86
2023/01/29 13:16:11;;;;;;;23.33;13.15;;;;;;;;;;5007386;28;20034;-86
2023/01/29 13:18:42;;;;;;;23.50;13.02;;;;;;;;;;5007894;28;20037;-86
2023/01/29 13:21:14;;;;;;;24.40;13.57;;;;;;;;;;4989504;28;20038;-86
2023/01/29 13:23:46;;;;;;;22.42;12.90;;;;;;;;;;4996107;28;20486;-85
2023/01/29 13:26:12;;;;;;;20.33;11.77;;;;;;;;;;5010508;28;20076;-86
2023/01/29 13:28:38;;;;;;;22.25;11.80;;;;;;;;;;5009965;28;20042;-86
2023/01/29 13:31:20;;;;;;;21.17;12.10;;;;;;;;;;5009230;28;20508;-86
2023/01/29 13:33:58;;;;;;;25.08;12.88;;;;;;;;;;4985972;28;20052;-86
2023/01/29 13:36:28;;;;;;;21.83;11.80;;;;;;;;;;4992492;28;20038;-84
2023/01/29 13:39:04;;;;;;;22.45;12.52;;;;;;;;;;5010954;28;20474;-86
2023/01/29 13:41:41;;;;;;;25.60;12.05;;;;;;;;;;4993943;28;20058;-86
2023/01/29 13:44:38;;;;;;;26.98;13.80;;;;;;;;;;4997473;28;20116;-85
2023/01/29 13:47:09;;;;;;;24.33;12.60;;;;;;;;;;4993387;28;20042;-85
2023/01/29 13:49:42;;;;;;;22.05;11.60;;;;;;;;;;4981108;28;20042;-85
2023/01/29 13:52:26;;;;;;;22.35;12.63;;;;;;;;;;4988053;28;20030;-86
2023/01/29 13:54:59;;;;;;;24.67;12.95;;;;;;;;;;5013521;28;20026;-85
2023/01/29 13:57:42;;;;;;;24.65;12.65;;;;;;;;;;4984533;28;20411;-85
2023/01/29 14:00:20;;;;;;;24.83;13.70;;;;;;;;;;4988796;28;20065;-86
2023/01/29 14:03:12;;;;;;;24.40;13.88;;;;;;;;;;5015655;28;20033;-86
2023/01/29 14:05:40;;;;;;;22.73;12.10;;;;;;;;;;4943057;28;20072;-85
2023/01/29 14:08:08;;;;;;;26.67;14.65;;;;;;;;;;4994549;28;20466;-85
2023/01/29 14:10:35;;;;;;;26.70;13.88;;;;;;;;;;5009676;28;20485;-86
2023/01/29 14:13:04;;;;;;;25.10;13.05;;;;;;;;;;4996463;28;20462;-86
2023/01/29 14:15:35;;;;;;;26.00;13.55;;;;;;;;;;5003228;28;20101;-86
2023/01/29 14:18:07;;;;;;;25.50;14.02;;;;;;;;;;5006262;28;20022;-86
2023/01/29 14:20:47;;;;;;;22.92;12.50;;;;;;;;;;5005151;28;20109;-86
2023/01/29 14:23:27;;;;;;;23.67;13.63;;;;;;;;;;4997884;28;20032;-86
2023/01/29 14:25:52;;;;;;;24.50;12.98;;;;;;;;;;5009561;28;20049;-86
2023/01/29 14:28:27;;;;;;;23.33;13.40;;;;;;;;;;5009826;28;20065;-86
2023/01/29 14:30:54;;;;;;;25.65;12.90;;;;;;;;;;5009734;28;20040;-85
2023/01/29 14:33:44;;;;;;;26.42;14.07;;;;;;;;;;4982824;28;20117;-86
2023/01/29 14:36:13;;;;;;;21.65;12.48;;;;;;;;;;5007360;28;20509;-85
2023/01/29 14:38:45;;;;;;;23.15;14.02;;;;;;;;;;5005513;28;20710;-85
2023/01/29 14:41:31;;;;;;;26.77;13.68;;;;;;;;;;5010055;28;20053;-86
2023/01/29 14:44:34;;;;;;;24.45;13.15;;;;;;;;;;4989721;28;20469;-86
2023/01/29 14:46:59;;;;;;;26.45;13.77;;;;;;;;;;5012201;28;20022;-86
2023/01/29 14:49:51;;;;;;;25.10;13.18;;;;;;;;;;5005578;28;20037;-85
2023/01/29 14:52:21;;;;;;;22.92;12.45;;;;;;;;;;4995351;28;20025;-86
2023/01/29 14:54:49;;;;;;;28.95;14.88;;;;;;;;;;5011668;28;20021;-86
2023/01/29 14:57:16;;;;;;;27.52;13.75;;;;;;;;;;5012678;28;20053;-86
2023/01/29 14:59:48;;;;;;;26.75;13.63;;;;;;;;;;4989912;28;20025;-85
2023/01/29 15:02:50;;;;;;;24.98;13.52;;;;;;;;;;5004581;28;20552;-86
2023/01/29 15:05:21;;;;;;;22.98;13.02;;;;;;;;;;5002356;28;20041;-86
2023/01/29 15:07:53;;;;;;;23.75;12.73;;;;;;;;;;5002509;28;20029;-86
2023/01/29 15:10:40;;;;;;;23.63;13.60;;;;;;;;;;4991943;28;20084;-85
2023/01/29 15:13:20;;;;;;;25.35;13.77;;;;;;;;;;5001264;28;20426;-85
2023/01/29 15:16:17;;;;;;;25.50;13.60;;;;;;;;;;5007689;28;20490;-85
2023/01/29 15:18:43;;;;;;;25.20;14.32;;;;;;;;;;5008530;28;20099;-86